< < Back
Terminal Aerodrome Forecast


Current Version              Previous Versions:   1  2  3  4  5  6  7  8  9  

Terminal Aerodrome Forecast

831
FTUS44 KMRX 041120
TAFTYS
TAF
KTYS 041120Z 0412/0512 26005KT P6SM SCT080
     FM041600 25012KT P6SM SCT060
     FM042100 25012G20KT P6SM VCSH OVC060
     FM050000 26012KT 5SM -SHRA OVC025
     FM050600 25010KT P6SM BKN035=

Latest METAR

073
SAUS80 KWBC 041100 RRA
MTRTYS
METAR KTYS 041053Z 25005KT 10SM FEW035 SCT080 11/07 A2983 RMK AO2 SLP097
T01060072


USA.gov is the U.S. government's official web portal to all federal, state and local government web resources and services.